createdAt,value
2022-10-19T00:01:21.746Z,13.70
2022-10-19T00:03:55.263Z,13.49
2022-10-19T00:06:28.772Z,13.38
2022-10-19T00:09:06.366Z,13.33
2022-10-19T00:11:36.033Z,13.37
2022-10-19T00:14:03.916Z,13.45
2022-10-19T00:16:35.326Z,13.34
2022-10-19T00:19:06.423Z,13.02
2022-10-19T00:21:33.992Z,13.03
2022-10-19T00:24:01.073Z,12.99
2022-10-19T00:26:28.110Z,12.90
2022-10-19T00:28:56.135Z,12.93
2022-10-19T00:31:23.654Z,12.89
2022-10-19T00:33:50.793Z,12.84
2022-10-19T00:36:28.246Z,12.76
2022-10-19T00:38:56.561Z,12.78
2022-10-19T00:41:27.193Z,12.83
2022-10-19T00:43:59.853Z,12.61
2022-10-19T00:46:34.158Z,12.65
2022-10-19T00:49:13.086Z,12.50
2022-10-19T00:51:44.948Z,12.45
2022-10-19T00:54:12.781Z,12.51
2022-10-19T00:56:44.105Z,12.41
2022-10-19T00:59:13.645Z,12.42
2022-10-19T01:01:41.875Z,12.41
2022-10-19T01:04:09.567Z,12.31
2022-10-19T01:06:37.078Z,12.26
2022-10-19T01:09:04.210Z,12.41
2022-10-19T01:11:45.698Z,12.28
2022-10-19T01:14:34.612Z,12.35
2022-10-19T01:17:32.803Z,12.25
2022-10-19T01:21:00.378Z,12.14
2022-10-19T01:23:48.250Z,12.24
2022-10-19T01:26:47.517Z,12.27
2022-10-19T01:29:41.733Z,12.37
2022-10-19T01:32:43.091Z,12.31
2022-10-19T01:35:49.391Z,12.39
2022-10-19T01:38:51.660Z,12.19
2022-10-19T01:41:43.229Z,12.24
2022-10-19T01:44:35.938Z,12.17
2022-10-19T01:47:16.739Z,12.16
2022-10-19T01:49:53.928Z,12.08
2022-10-19T01:52:23.492Z,12.08
2022-10-19T01:54:56.493Z,12.04
2022-10-19T01:57:30.721Z,12.01
2022-10-19T01:59:58.405Z,12.00
2022-10-19T02:02:29.350Z,12.05
2022-10-19T02:04:57.654Z,12.01
2022-10-19T02:07:25.905Z,12.05
2022-10-19T02:09:52.923Z,11.98
2022-10-19T02:12:21.754Z,12.10
2022-10-19T02:14:54.030Z,12.11
2022-10-19T02:17:27.229Z,12.01
2022-10-19T02:19:54.764Z,12.04
2022-10-19T02:22:22.139Z,12.01
2022-10-19T02:24:49.250Z,12.02
2022-10-19T02:27:16.670Z,12.04
2022-10-19T02:29:43.724Z,12.04
2022-10-19T02:32:11.433Z,11.99
2022-10-19T02:34:39.704Z,11.89
2022-10-19T02:37:07.478Z,11.92
2022-10-19T02:39:34.728Z,11.99
2022-10-19T02:42:17.122Z,12.08
2022-10-19T02:45:12.635Z,11.79
2022-10-19T02:47:51.162Z,11.77
2022-10-19T02:50:21.192Z,11.65
2022-10-19T02:52:48.208Z,11.68
2022-10-19T02:55:15.362Z,11.63
2022-10-19T02:57:42.291Z,11.62
2022-10-19T03:00:10.774Z,11.65
2022-10-19T03:02:37.781Z,11.51
2022-10-19T03:05:05.439Z,11.42
2022-10-19T03:07:32.646Z,11.54
2022-10-19T03:09:59.973Z,11.49
2022-10-19T03:12:26.899Z,11.48
2022-10-19T03:14:53.884Z,11.39
2022-10-19T03:17:20.930Z,11.40
2022-10-19T03:19:48.050Z,11.39
2022-10-19T03:22:15.391Z,11.34
2022-10-19T03:24:42.486Z,11.27
2022-10-19T03:27:09.475Z,11.38
2022-10-19T03:29:36.490Z,11.46
2022-10-19T03:32:03.700Z,11.38
2022-10-19T03:34:30.778Z,11.38
2022-10-19T03:36:59.268Z,11.51
2022-10-19T03:39:26.554Z,11.42
2022-10-19T03:41:53.502Z,11.36
2022-10-19T03:44:20.441Z,11.40
2022-10-19T03:46:47.516Z,11.38
2022-10-19T03:49:14.497Z,11.38
2022-10-19T03:51:41.558Z,11.45
2022-10-19T03:54:14.860Z,11.49
2022-10-19T03:56:42.661Z,11.47
2022-10-19T03:59:14.640Z,11.48
2022-10-19T04:01:46.147Z,11.43
2022-10-19T04:04:19.248Z,11.42
2022-10-19T04:06:49.943Z,11.47
2022-10-19T04:09:20.210Z,11.44
2022-10-19T04:11:47.823Z,11.34
2022-10-19T04:14:26.869Z,11.56
2022-10-19T04:17:03.306Z,11.73
2022-10-19T04:19:30.796Z,11.50
2022-10-19T04:21:58.296Z,11.48
2022-10-19T04:24:25.309Z,11.53
2022-10-19T04:26:54.813Z,11.58
2022-10-19T04:29:29.393Z,11.56
2022-10-19T04:31:58.118Z,11.52
2022-10-19T04:34:25.297Z,11.48
2022-10-19T04:36:53.393Z,11.40
2022-10-19T04:39:20.478Z,11.54
2022-10-19T04:41:47.434Z,11.45
2022-10-19T04:44:15.535Z,11.40
2022-10-19T04:46:42.536Z,11.43
2022-10-19T04:49:09.466Z,11.55
2022-10-19T04:51:36.433Z,11.57
2022-10-19T04:54:04.746Z,11.62
2022-10-19T04:56:32.469Z,11.52
2022-10-19T04:59:01.032Z,11.47
2022-10-19T05:01:30.378Z,11.52
2022-10-19T05:04:00.721Z,11.57
2022-10-19T05:06:28.636Z,11.55
2022-10-19T05:08:55.996Z,11.58
2022-10-19T05:11:23.068Z,11.53
2022-10-19T05:13:50.268Z,11.47
2022-10-19T05:16:21.107Z,11.58
2022-10-19T05:18:52.823Z,11.56
2022-10-19T05:21:20.982Z,11.50
2022-10-19T05:23:53.105Z,11.50
2022-10-19T05:26:23.347Z,11.45
2022-10-19T05:28:57.012Z,11.56
2022-10-19T05:31:30.825Z,11.53
2022-10-19T05:33:58.470Z,11.50
2022-10-19T05:36:40.014Z,11.53
2022-10-19T05:39:15.593Z,11.62
2022-10-19T05:41:47.417Z,11.67
2022-10-19T05:44:18.613Z,11.69
2022-10-19T05:46:46.305Z,11.78
2022-10-19T05:49:14.515Z,11.81
2022-10-19T05:51:41.717Z,11.92
2022-10-19T05:54:09.780Z,11.92
2022-10-19T05:56:37.085Z,11.88
2022-10-19T05:59:07.789Z,11.99
2022-10-19T06:01:36.924Z,12.08
2022-10-19T06:04:04.563Z,12.10
2022-10-19T06:06:31.967Z,12.05
2022-10-19T06:09:00.296Z,11.98
2022-10-19T06:11:37.427Z,12.24
2022-10-19T06:14:10.967Z,12.46
2022-10-19T06:16:38.254Z,12.68
2022-10-19T06:19:05.977Z,12.99
2022-10-19T06:21:34.210Z,12.70
2022-10-19T06:24:04.690Z,12.48
2022-10-19T06:26:35.592Z,12.34
2022-10-19T06:29:04.197Z,12.31
2022-10-19T06:31:34.600Z,12.23
2022-10-19T06:34:02.044Z,12.45
2022-10-19T06:36:31.523Z,12.46
2022-10-19T06:39:00.034Z,12.45
2022-10-19T06:41:27.823Z,12.44
2022-10-19T06:43:56.085Z,12.40
2022-10-19T06:46:25.924Z,12.44
2022-10-19T06:48:56.761Z,12.50
2022-10-19T06:51:26.047Z,12.63
2022-10-19T06:53:56.568Z,12.25
2022-10-19T06:56:26.713Z,12.43
2022-10-19T06:58:54.653Z,12.28
2022-10-19T07:01:22.281Z,12.19
2022-10-19T07:03:53.279Z,12.20
2022-10-19T07:06:20.668Z,12.08
2022-10-19T07:08:47.708Z,11.95
2022-10-19T07:11:20.701Z,12.34
2022-10-19T07:13:47.815Z,12.94
2022-10-19T07:16:20.723Z,14.33
2022-10-19T07:18:51.579Z,15.00
2022-10-19T07:21:21.295Z,15.25
2022-10-19T07:23:48.965Z,17.09
2022-10-19T07:26:27.895Z,18.26
2022-10-19T07:28:56.929Z,18.96
2022-10-19T07:31:26.795Z,17.41
2022-10-19T07:34:00.284Z,16.71
2022-10-19T07:36:30.455Z,16.48
2022-10-19T07:38:57.760Z,15.58
2022-10-19T07:41:26.159Z,15.48
2022-10-19T07:43:53.896Z,15.39
2022-10-19T07:46:25.423Z,15.63
2022-10-19T07:48:53.457Z,15.11
2022-10-19T07:51:21.537Z,14.99
2022-10-19T07:53:49.143Z,15.22
2022-10-19T07:56:22.459Z,15.12
2022-10-19T07:58:55.673Z,15.18
2022-10-19T08:01:26.628Z,15.07
2022-10-19T08:04:48.730Z,15.53
2022-10-19T08:06:43.406Z,15.63
2022-10-19T08:09:15.613Z,15.34
2022-10-19T08:11:49.877Z,15.32
2022-10-19T08:14:16.836Z,14.85
2022-10-19T08:16:44.651Z,14.53
2022-10-19T08:19:15.632Z,14.40
2022-10-19T08:21:46.206Z,14.23
2022-10-19T08:24:15.490Z,14.09
2022-10-19T08:26:43.007Z,14.00
2022-10-19T08:29:19.673Z,13.99
2022-10-19T08:31:48.711Z,13.98
2022-10-19T08:34:16.171Z,14.27
2022-10-19T08:36:43.857Z,14.21
2022-10-19T08:39:12.782Z,14.03
2022-10-19T08:42:14.433Z,13.87
2022-10-19T08:45:28.084Z,13.78
2022-10-19T08:48:24.056Z,13.84
2022-10-19T08:50:51.722Z,13.74
2022-10-19T08:53:59.421Z,13.81
2022-10-19T08:57:02.513Z,13.48
2022-10-19T08:59:54.981Z,13.67
2022-10-19T09:03:11.330Z,13.58
2022-10-19T09:06:00.228Z,13.78
2022-10-19T09:08:28.171Z,13.48
2022-10-19T09:10:55.743Z,13.52
2022-10-19T09:13:29.248Z,13.77
2022-10-19T09:16:04.808Z,13.78
2022-10-19T09:18:35.839Z,13.98
2022-10-19T09:21:12.265Z,13.94
2022-10-19T09:24:06.240Z,14.06
2022-10-19T09:26:54.240Z,14.20
2022-10-19T09:29:48.082Z,14.17
2022-10-19T09:32:25.305Z,14.35
2022-10-19T09:35:01.135Z,14.22
2022-10-19T09:37:32.613Z,14.10
2022-10-19T09:39:59.552Z,14.22
2022-10-19T09:42:33.854Z,15.13
2022-10-19T09:45:14.601Z,15.76
2022-10-19T09:47:45.920Z,15.29
2022-10-19T09:50:25.267Z,15.28
2022-10-19T09:53:03.009Z,14.99
2022-10-19T09:55:44.022Z,14.50
2022-10-19T09:58:13.892Z,14.11
2022-10-19T10:00:44.769Z,13.69
2022-10-19T10:03:36.009Z,13.45
2022-10-19T10:06:16.173Z,13.56
2022-10-19T10:08:59.005Z,13.65
2022-10-19T10:11:31.928Z,13.55
2022-10-19T10:14:09.126Z,13.68
2022-10-19T10:16:37.153Z,13.44
2022-10-19T10:19:16.488Z,13.50
2022-10-19T10:21:55.705Z,13.44
2022-10-19T10:24:34.138Z,13.73
2022-10-19T10:27:05.696Z,13.96
2022-10-19T10:29:36.672Z,14.17
2022-10-19T10:32:13.286Z,14.20
2022-10-19T10:35:01.039Z,14.23
2022-10-19T10:37:47.950Z,14.64
2022-10-19T10:40:29.955Z,14.92
2022-10-19T10:43:13.948Z,14.67
2022-10-19T10:50:00.118Z,14.61
2022-10-19T10:52:33.688Z,14.45
2022-10-19T10:55:09.645Z,15.30
2022-10-19T10:57:43.496Z,15.47
2022-10-19T11:00:21.315Z,15.67
2022-10-19T11:03:29.082Z,15.55
2022-10-19T11:06:02.675Z,15.70
2022-10-19T11:08:43.588Z,15.98
2022-10-19T11:11:23.600Z,16.40
2022-10-19T11:14:25.462Z,16.48
2022-10-19T11:16:56.706Z,16.57
2022-10-19T11:19:37.805Z,16.71
2022-10-19T11:22:34.293Z,16.56
2022-10-19T11:25:38.480Z,16.61
2022-10-19T11:28:45.846Z,16.15
2022-10-19T11:31:22.338Z,15.95
2022-10-19T11:33:56.426Z,15.95
2022-10-19T11:37:06.175Z,16.37
2022-10-19T11:40:26.918Z,16.56
2022-10-19T11:43:15.944Z,15.87
2022-10-19T11:46:13.477Z,16.24
2022-10-19T11:49:11.577Z,16.02
2022-10-19T11:51:59.934Z,16.07
2022-10-19T11:54:54.730Z,15.75
2022-10-19T11:57:37.126Z,15.83
2022-10-19T12:00:38.560Z,15.74
2022-10-19T12:03:30.379Z,15.63
2022-10-19T12:06:19.056Z,15.35
2022-10-19T12:09:22.973Z,15.18
2022-10-19T12:12:18.298Z,15.46
2022-10-19T12:14:50.099Z,15.16
2022-10-19T12:17:29.524Z,15.03
2022-10-19T12:20:03.553Z,15.35
2022-10-19T12:22:31.701Z,14.95
2022-10-19T12:25:01.693Z,14.98
2022-10-19T12:27:37.057Z,15.11
2022-10-19T12:30:23.969Z,14.85
2022-10-19T12:33:17.279Z,14.86
2022-10-19T12:36:15.836Z,14.82
2022-10-19T12:39:01.300Z,14.67
2022-10-19T12:42:03.467Z,14.69
2022-10-19T12:44:58.881Z,14.60
2022-10-19T12:47:26.905Z,14.67
2022-10-19T12:49:58.171Z,14.81
2022-10-19T12:52:52.330Z,14.61
2022-10-19T12:55:31.448Z,14.66
2022-10-19T12:58:06.735Z,14.69
2022-10-19T13:00:37.617Z,14.64
2022-10-19T13:03:26.235Z,14.55
2022-10-19T13:06:03.126Z,14.45
2022-10-19T13:08:40.928Z,14.34
2022-10-19T13:11:16.697Z,14.58
2022-10-19T13:14:17.241Z,14.44
2022-10-19T13:17:03.997Z,14.45
2022-10-19T13:19:31.043Z,14.61
2022-10-19T13:22:27.749Z,14.51
2022-10-19T13:25:16.514Z,14.52
2022-10-19T13:27:45.437Z,14.48
2022-10-19T13:30:41.749Z,14.51
2022-10-19T13:33:29.574Z,14.15
2022-10-19T13:35:59.493Z,14.08
2022-10-19T13:38:33.220Z,13.89
2022-10-19T13:41:18.189Z,13.95
2022-10-19T13:44:00.792Z,13.55
2022-10-19T13:46:30.340Z,13.61
2022-10-19T13:49:18.215Z,13.48
2022-10-19T13:52:09.115Z,13.44
2022-10-19T13:55:16.223Z,13.42
2022-10-19T13:58:22.932Z,13.35
2022-10-19T14:01:27.105Z,13.26
2022-10-19T14:04:18.807Z,13.04
2022-10-19T14:07:07.301Z,12.65
2022-10-19T14:09:46.436Z,12.51
2022-10-19T14:12:29.023Z,12.34
2022-10-19T14:14:56.025Z,12.11
2022-10-19T14:17:30.330Z,12.01
2022-10-19T14:19:59.953Z,12.03
2022-10-19T14:22:33.596Z,12.18
2022-10-19T14:25:18.540Z,12.10
2022-10-19T14:27:48.086Z,12.02
2022-10-19T14:30:27.955Z,11.87
2022-10-19T14:32:59.453Z,11.95
2022-10-19T14:35:41.266Z,11.86
2022-10-19T14:38:17.470Z,11.76
2022-10-19T14:40:44.389Z,11.78
2022-10-19T14:43:27.751Z,11.68
2022-10-19T14:46:08.002Z,11.63
2022-10-19T14:48:37.759Z,11.60
2022-10-19T14:51:27.737Z,11.49
2022-10-19T14:54:20.144Z,11.30
2022-10-19T14:57:07.810Z,11.35
2022-10-19T14:59:47.856Z,11.26
2022-10-19T15:02:44.328Z,11.16
2022-10-19T15:05:29.287Z,11.20
2022-10-19T15:07:56.593Z,11.26
2022-10-19T15:10:39.543Z,11.11
2022-10-19T15:13:08.294Z,11.06
2022-10-19T15:15:36.175Z,11.17
2022-10-19T15:18:06.517Z,11.06
2022-10-19T15:20:54.899Z,10.98
2022-10-19T15:23:37.447Z,10.95
2022-10-19T15:26:24.545Z,10.98
2022-10-19T15:28:52.751Z,10.86
2022-10-19T15:31:28.174Z,10.72
2022-10-19T15:33:59.362Z,10.72
2022-10-19T15:36:28.135Z,10.72
2022-10-19T15:39:18.293Z,10.69
2022-10-19T15:41:52.456Z,10.65
2022-10-19T15:44:43.998Z,10.63
2022-10-19T15:47:16.515Z,10.48
2022-10-19T15:49:43.401Z,10.53
2022-10-19T15:52:30.318Z,10.46
2022-10-19T15:55:00.144Z,10.41
2022-10-19T15:57:29.501Z,10.27
2022-10-19T15:59:59.080Z,10.24
2022-10-19T16:02:26.812Z,10.18
2022-10-19T16:04:55.324Z,10.28
2022-10-19T16:07:34.457Z,10.22
2022-10-19T16:10:01.660Z,10.30
2022-10-19T16:12:28.674Z,10.29
2022-10-19T16:14:55.828Z,10.26
2022-10-19T16:17:23.281Z,10.06
2022-10-19T16:19:51.161Z,10.16
2022-10-19T16:22:18.166Z,10.09
2022-10-19T16:24:45.159Z,9.98
2022-10-19T16:27:15.248Z,10.07
2022-10-19T16:29:44.437Z,9.98
2022-10-19T16:32:11.492Z,9.86
2022-10-19T16:34:38.644Z,9.76
2022-10-19T16:37:07.206Z,9.79
2022-10-19T16:39:35.134Z,9.67
2022-10-19T16:42:02.122Z,9.70
2022-10-19T16:44:29.104Z,9.62
2022-10-19T16:46:59.585Z,9.69
2022-10-19T16:49:27.029Z,9.68
2022-10-19T16:51:57.214Z,9.65
2022-10-19T16:54:30.054Z,9.59
2022-10-19T16:56:56.987Z,9.62
2022-10-19T16:59:23.894Z,9.62
2022-10-19T17:01:51.142Z,9.50
2022-10-19T17:04:18.171Z,9.40
2022-10-19T17:06:45.268Z,9.52
2022-10-19T17:11:59.522Z,9.45
2022-10-19T17:14:26.733Z,9.42
2022-10-19T17:16:53.665Z,9.36
2022-10-19T17:19:20.626Z,9.33
2022-10-19T17:21:49.374Z,9.33
2022-10-19T17:24:21.950Z,9.25
2022-10-19T17:26:51.798Z,9.11
2022-10-19T17:29:20.777Z,9.02
2022-10-19T17:31:49.221Z,9.12
2022-10-19T17:34:17.202Z,9.01
2022-10-19T17:36:46.491Z,8.96
2022-10-19T17:39:24.237Z,9.02
2022-10-19T17:41:54.492Z,9.00
2022-10-19T17:44:22.133Z,8.98
2022-10-19T17:46:49.459Z,8.97
2022-10-19T17:49:16.521Z,8.97
2022-10-19T17:51:43.503Z,8.91
2022-10-19T17:54:14.195Z,8.92
2022-10-19T17:56:44.997Z,8.90
2022-10-19T17:59:13.054Z,8.88
2022-10-19T18:01:41.906Z,8.78
2022-10-19T18:04:08.908Z,8.79
2022-10-19T18:06:38.239Z,8.76
2022-10-19T18:09:09.639Z,8.67
2022-10-19T18:11:41.833Z,8.68
2022-10-19T18:14:10.699Z,8.77
2022-10-19T18:16:46.371Z,8.75
2022-10-19T18:19:15.849Z,8.74
2022-10-19T18:21:45.762Z,8.68
2022-10-19T18:24:19.238Z,8.54
2022-10-19T18:26:47.283Z,8.48
2022-10-19T18:29:20.404Z,8.54
2022-10-19T18:31:51.457Z,8.54
2022-10-19T18:34:25.562Z,8.50
2022-10-19T18:36:54.049Z,8.54
2022-10-19T18:39:21.690Z,8.50
2022-10-19T18:41:54.603Z,8.41
2022-10-19T18:44:26.339Z,8.43
2022-10-19T18:46:56.492Z,8.26
2022-10-19T18:49:24.176Z,8.34
2022-10-19T18:51:55.054Z,8.37
2022-10-19T18:54:24.444Z,8.13
2022-10-19T18:56:51.478Z,8.07
2022-10-19T18:59:19.114Z,8.18
2022-10-19T19:01:46.179Z,8.11
2022-10-19T19:04:13.925Z,8.06
2022-10-19T19:06:40.906Z,8.14
2022-10-19T19:09:11.307Z,8.06
2022-10-19T19:11:41.051Z,7.94
2022-10-19T19:14:21.138Z,7.82
2022-10-19T19:16:48.196Z,7.85
2022-10-19T19:19:17.396Z,7.75
2022-10-19T19:21:45.365Z,7.54
2022-10-19T19:24:18.847Z,7.70
2022-10-19T19:26:50.729Z,7.82
2022-10-19T19:29:20.100Z,7.77
2022-10-19T19:31:47.882Z,7.50
2022-10-19T19:34:14.834Z,7.41
2022-10-19T19:36:47.057Z,7.46
2022-10-19T19:39:16.565Z,7.55
2022-10-19T19:41:43.509Z,7.40
2022-10-19T19:44:11.244Z,7.38
2022-10-19T19:46:38.531Z,7.31
2022-10-19T19:49:05.720Z,7.26
2022-10-19T19:51:33.638Z,7.32
2022-10-19T19:54:00.745Z,7.22
2022-10-19T19:56:29.750Z,7.39
2022-10-19T19:59:03.791Z,7.32
2022-10-19T20:01:33.717Z,7.23
2022-10-19T20:06:29.556Z,7.02
2022-10-19T20:08:56.740Z,7.14
2022-10-19T20:11:26.744Z,7.15
2022-10-19T20:13:54.618Z,7.19
2022-10-19T20:16:29.440Z,7.07
2022-10-19T20:19:14.015Z,7.28
2022-10-19T20:21:41.419Z,7.18
2022-10-19T20:24:09.226Z,7.07
2022-10-19T20:26:36.406Z,7.19
2022-10-19T20:29:04.991Z,7.21
2022-10-19T20:31:38.643Z,7.18
2022-10-19T20:34:12.356Z,7.17
2022-10-19T20:36:39.862Z,7.18
2022-10-19T20:39:07.114Z,7.05
2022-10-19T20:41:34.277Z,7.00
2022-10-19T20:44:01.637Z,7.08
2022-10-19T20:46:30.159Z,6.91
2022-10-19T20:49:00.984Z,6.88
2022-10-19T20:51:32.544Z,6.96
2022-10-19T20:54:02.500Z,6.91
2022-10-19T20:56:34.679Z,6.96
2022-10-19T20:59:06.340Z,6.88
2022-10-19T21:01:36.558Z,6.85
2022-10-19T21:04:07.346Z,6.85
2022-10-19T21:06:39.360Z,6.84
2022-10-19T21:09:08.119Z,6.75
2022-10-19T21:11:38.806Z,6.84
2022-10-19T21:14:13.363Z,6.80
2022-10-19T21:16:40.927Z,6.70
2022-10-19T21:19:13.612Z,6.72
2022-10-19T21:21:45.505Z,6.74
2022-10-19T21:24:22.751Z,6.72
2022-10-19T21:26:49.680Z,6.91
2022-10-19T21:29:17.542Z,6.82
2022-10-19T21:31:49.309Z,6.66
2022-10-19T21:34:21.778Z,6.62
2022-10-19T21:36:49.509Z,7.04
2022-10-19T21:39:17.278Z,6.71
2022-10-19T21:41:44.536Z,6.54
2022-10-19T21:44:11.844Z,6.56
2022-10-19T21:46:38.816Z,6.52
2022-10-19T21:49:05.861Z,6.52
2022-10-19T21:51:42.036Z,6.48
2022-10-19T21:54:20.124Z,6.41
2022-10-19T21:56:47.952Z,6.53
2022-10-19T21:59:16.197Z,6.50
2022-10-19T22:01:43.596Z,6.65
2022-10-19T22:04:16.941Z,6.50
2022-10-19T22:06:44.571Z,6.37
2022-10-19T22:09:19.148Z,6.41
2022-10-19T22:11:46.543Z,6.38
2022-10-19T22:14:15.556Z,6.39
2022-10-19T22:16:43.156Z,6.35
2022-10-19T22:19:11.127Z,6.32
2022-10-19T22:24:14.993Z,6.39
2022-10-19T22:26:46.445Z,6.29
2022-10-19T22:29:13.629Z,6.24
2022-10-19T22:31:40.703Z,6.31
2022-10-19T22:34:15.682Z,6.22
2022-10-19T22:36:43.667Z,6.29
2022-10-19T22:39:10.951Z,6.31
2022-10-19T22:42:52.948Z,6.31
2022-10-19T22:45:19.958Z,6.28
2022-10-19T22:47:46.974Z,6.25
2022-10-19T22:50:14.144Z,6.37
2022-10-19T22:52:41.157Z,6.18
2022-10-19T22:55:08.545Z,6.28
2022-10-19T22:57:35.546Z,6.30
2022-10-19T23:00:02.632Z,6.22
2022-10-19T23:02:29.846Z,6.18
2022-10-19T23:04:56.844Z,6.23
2022-10-19T23:07:23.904Z,6.14
2022-10-19T23:09:50.905Z,6.08
2022-10-19T23:12:17.909Z,6.03
2022-10-19T23:14:44.955Z,5.96
2022-10-19T23:17:11.930Z,5.99
2022-10-19T23:19:38.953Z,6.10
2022-10-19T23:22:05.942Z,6.05
2022-10-19T23:24:32.915Z,5.91
2022-10-19T23:26:59.923Z,5.87
2022-10-19T23:29:27.007Z,5.78
2022-10-19T23:31:53.937Z,5.71
2022-10-19T23:34:20.923Z,5.68
2022-10-19T23:36:47.881Z,5.62
2022-10-19T23:39:15.046Z,5.53
2022-10-19T23:41:41.973Z,5.54
2022-10-19T23:44:10.245Z,5.51
2022-10-19T23:46:37.144Z,5.50
2022-10-19T23:49:04.068Z,5.54
2022-10-19T23:51:31.247Z,5.53
2022-10-19T23:53:58.226Z,5.34
2022-10-19T23:56:28.638Z,5.55
2022-10-19T23:58:56.814Z,5.55
